sensor_id;sensor_type;location;lat;lon;timestamp;P1;P2;P0
78678;PMS5003;67994;59.334;13.528;2023-07-29T00:00:00;5.0;5.0;
78678;PMS5003;67994;59.334;13.528;2023-07-29T00:01:00;5.0;5.0;
78678;PMS5003;67994;59.334;13.528;2023-07-29T00:02:00;5.0;5.0;
78678;PMS5003;67994;59.334;13.528;2023-07-29T00:03:00;10.2;9.3;
78678;PMS5003;67994;59.334;13.528;2023-07-29T00:04:00;10.2;9.3;
78678;PMS5003;67994;59.334;13.528;2023-07-29T00:05:00;10.2;9.3;
78678;PMS5003;67994;59.334;13.528;2023-07-29T00:06:00;10.2;9.3;
78678;PMS5003;67994;59.334;13.528;2023-07-29T00:07:00;10.2;9.3;
78678;PMS5003;67994;59.334;13.528;2023-07-29T00:08:00;6.6;6.0;
78678;PMS5003;67994;59.334;13.528;2023-07-29T00:09:00;6.6;6.0;
78678;PMS5003;67994;59.334;13.528;2023-07-29T00:10:00;6.6;6.0;
78678;PMS5003;67994;59.334;13.528;2023-07-29T00:11:02;6.6;6.0;
78678;PMS5003;67994;59.334;13.528;2023-07-29T00:12:00;6.6;6.0;
78678;PMS5003;67994;59.334;13.528;2023-07-29T00:13:00;5.5;5.4;
78678;PMS5003;67994;59.334;13.528;2023-07-29T00:14:00;5.5;5.4;
78678;PMS5003;67994;59.334;13.528;2023-07-29T00:15:00;5.5;5.4;
78678;PMS5003;67994;59.334;13.528;2023-07-29T00:16:00;5.5;5.4;
78678;PMS5003;67994;59.334;13.528;2023-07-29T00:17:00;5.5;5.4;
78678;PMS5003;67994;59.334;13.528;2023-07-29T00:18:00;6.1;6.1;
78678;PMS5003;67994;59.334;13.528;2023-07-29T00:19:00;6.1;6.1;
78678;PMS5003;67994;59.334;13.528;2023-07-29T00:20:00;6.1;6.1;
78678;PMS5003;67994;59.334;13.528;2023-07-29T00:21:00;6.1;6.1;
78678;PMS5003;67994;59.334;13.528;2023-07-29T00:22:00;6.1;6.1;
78678;PMS5003;67994;59.334;13.528;2023-07-29T00:23:00;6.6;6.6;
78678;PMS5003;67994;59.334;13.528;2023-07-29T00:24:00;6.6;6.6;
78678;PMS5003;67994;59.334;13.528;2023-07-29T00:25:00;6.6;6.6;
78678;PMS5003;67994;59.334;13.528;2023-07-29T00:26:00;6.6;6.6;
78678;PMS5003;67994;59.334;13.528;2023-07-29T00:27:00;6.6;6.6;
78678;PMS5003;67994;59.334;13.528;2023-07-29T00:28:00;7.9;6.0;
78678;PMS5003;67994;59.334;13.528;2023-07-29T00:29:00;7.9;6.0;
78678;PMS5003;67994;59.334;13.528;2023-07-29T00:30:00;7.9;6.0;
78678;PMS5003;67994;59.334;13.528;2023-07-29T00:31:00;7.9;6.0;
78678;PMS5003;67994;59.334;13.528;2023-07-29T00:32:00;7.9;6.0;
78678;PMS5003;67994;59.334;13.528;2023-07-29T00:33:00;12.0;11.3;
78678;PMS5003;67994;59.334;13.528;2023-07-29T00:34:02;12.0;11.3;
78678;PMS5003;67994;59.334;13.528;2023-07-29T00:35:00;12.0;11.3;
78678;PMS5003;67994;59.334;13.528;2023-07-29T00:36:00;12.0;11.3;
78678;PMS5003;67994;59.334;13.528;2023-07-29T00:37:00;12.0;11.3;
78678;PMS5003;67994;59.334;13.528;2023-07-29T00:38:00;11.9;10.2;
78678;PMS5003;67994;59.334;13.528;2023-07-29T00:39:00;11.9;10.2;
78678;PMS5003;67994;59.334;13.528;2023-07-29T00:40:00;11.9;10.2;
78678;PMS5003;67994;59.334;13.528;2023-07-29T00:41:00;11.9;10.2;
78678;PMS5003;67994;59.334;13.528;2023-07-29T00:42:00;11.9;10.2;
78678;PMS5003;67994;59.334;13.528;2023-07-29T00:43:00;9.0;9.0;
78678;PMS5003;67994;59.334;13.528;2023-07-29T00:44:00;9.0;9.0;
78678;PMS5003;67994;59.334;13.528;2023-07-29T00:45:00;9.0;9.0;
78678;PMS5003;67994;59.334;13.528;2023-07-29T00:46:00;9.0;9.0;
78678;PMS5003;67994;59.334;13.528;2023-07-29T00:47:00;9.0;9.0;
78678;PMS5003;67994;59.334;13.528;2023-07-29T00:48:00;8.4;7.4;
78678;PMS5003;67994;59.334;13.528;2023-07-29T00:49:00;8.4;7.4;
78678;PMS5003;67994;59.334;13.528;2023-07-29T00:50:00;8.4;7.4;
78678;PMS5003;67994;59.334;13.528;2023-07-29T00:51:00;8.4;7.4;
78678;PMS5003;67994;59.334;13.528;2023-07-29T00:52:00;8.4;7.4;
78678;PMS5003;67994;59.334;13.528;2023-07-29T00:53:00;10.0;8.7;
78678;PMS5003;67994;59.334;13.528;2023-07-29T00:54:00;10.0;8.7;
78678;PMS5003;67994;59.334;13.528;2023-07-29T00:55:00;10.0;8.7;
78678;PMS5003;67994;59.334;13.528;2023-07-29T00:56:00;10.0;8.7;
78678;PMS5003;67994;59.334;13.528;2023-07-29T00:57:00;10.0;8.7;
78678;PMS5003;67994;59.334;13.528;2023-07-29T00:58:00;10.7;8.1;
78678;PMS5003;67994;59.334;13.528;2023-07-29T00:59:00;10.7;8.1;
78678;PMS5003;67994;59.334;13.528;2023-07-29T01:00:00;10.7;8.1;
78678;PMS5003;67994;59.334;13.528;2023-07-29T01:01:00;10.7;8.1;
78678;PMS5003;67994;59.334;13.528;2023-07-29T01:02:00;10.7;8.1;
78678;PMS5003;67994;59.334;13.528;2023-07-29T01:03:00;7.7;7.7;
78678;PMS5003;67994;59.334;13.528;2023-07-29T01:04:00;7.7;7.7;
78678;PMS5003;67994;59.334;13.528;2023-07-29T01:05:00;7.7;7.7;
78678;PMS5003;67994;59.334;13.528;2023-07-29T01:06:04;7.7;7.7;
78678;PMS5003;67994;59.334;13.528;2023-07-29T01:07:03;7.7;7.7;
78678;PMS5003;67994;59.334;13.528;2023-07-29T01:08:04;8.6;8.0;
78678;PMS5003;67994;59.334;13.528;2023-07-29T01:09:01;8.6;8.0;
78678;PMS5003;67994;59.334;13.528;2023-07-29T01:10:01;8.6;8.0;
78678;PMS5003;67994;59.334;13.528;2023-07-29T01:11:01;8.6;8.0;
78678;PMS5003;67994;59.334;13.528;2023-07-29T01:12:01;8.6;8.0;
78678;PMS5003;67994;59.334;13.528;2023-07-29T01:13:01;8.7;8.7;
78678;PMS5003;67994;59.334;13.528;2023-07-29T01:14:01;8.7;8.7;
78678;PMS5003;67994;59.334;13.528;2023-07-29T01:15:01;8.7;8.7;
78678;PMS5003;67994;59.334;13.528;2023-07-29T01:16:00;8.7;8.7;
78678;PMS5003;67994;59.334;13.528;2023-07-29T01:17:00;8.7;8.7;
78678;PMS5003;67994;59.334;13.528;2023-07-29T01:18:02;11.0;10.0;
78678;PMS5003;67994;59.334;13.528;2023-07-29T01:19:01;11.0;10.0;
78678;PMS5003;67994;59.334;13.528;2023-07-29T01:20:00;11.0;10.0;
78678;PMS5003;67994;59.334;13.528;2023-07-29T01:21:02;11.0;10.0;
78678;PMS5003;67994;59.334;13.528;2023-07-29T01:22:00;11.0;10.0;
78678;PMS5003;67994;59.334;13.528;2023-07-29T01:23:00;9.1;9.1;
78678;PMS5003;67994;59.334;13.528;2023-07-29T01:24:00;9.1;9.1;
78678;PMS5003;67994;59.334;13.528;2023-07-29T01:25:00;9.1;9.1;
78678;PMS5003;67994;59.334;13.528;2023-07-29T01:26:00;9.1;9.1;
78678;PMS5003;67994;59.334;13.528;2023-07-29T01:27:00;9.1;9.1;
78678;PMS5003;67994;59.334;13.528;2023-07-29T01:28:00;10.3;9.0;
78678;PMS5003;67994;59.334;13.528;2023-07-29T01:29:00;10.3;9.0;
78678;PMS5003;67994;59.334;13.528;2023-07-29T01:30:00;10.3;9.0;
78678;PMS5003;67994;59.334;13.528;2023-07-29T01:31:01;10.3;9.0;
78678;PMS5003;67994;59.334;13.528;2023-07-29T01:32:01;10.3;9.0;
78678;PMS5003;67994;59.334;13.528;2023-07-29T01:33:02;13.6;13.6;
78678;PMS5003;67994;59.334;13.528;2023-07-29T01:34:01;13.6;13.6;
78678;PMS5003;67994;59.334;13.528;2023-07-29T01:35:02;13.6;13.6;
78678;PMS5003;67994;59.334;13.528;2023-07-29T01:36:02;13.6;13.6;
78678;PMS5003;67994;59.334;13.528;2023-07-29T01:37:00;13.6;13.6;
78678;PMS5003;67994;59.334;13.528;2023-07-29T01:38:01;9.5;9.1;
78678;PMS5003;67994;59.334;13.528;2023-07-29T01:39:00;9.5;9.1;
78678;PMS5003;67994;59.334;13.528;2023-07-29T01:40:00;9.5;9.1;
78678;PMS5003;67994;59.334;13.528;2023-07-29T01:41:00;9.5;9.1;
78678;PMS5003;67994;59.334;13.528;2023-07-29T01:42:00;9.5;9.1;
78678;PMS5003;67994;59.334;13.528;2023-07-29T01:43:00;10.9;7.8;
78678;PMS5003;67994;59.334;13.528;2023-07-29T01:44:00;10.9;7.8;
78678;PMS5003;67994;59.334;13.528;2023-07-29T01:45:00;10.9;7.8;
78678;PMS5003;67994;59.334;13.528;2023-07-29T01:46:00;10.9;7.8;
78678;PMS5003;67994;59.334;13.528;2023-07-29T01:47:00;10.9;7.8;
78678;PMS5003;67994;59.334;13.528;2023-07-29T01:48:00;10.6;7.6;
78678;PMS5003;67994;59.334;13.528;2023-07-29T01:49:00;10.6;7.6;
78678;PMS5003;67994;59.334;13.528;2023-07-29T01:50:00;10.6;7.6;
78678;PMS5003;67994;59.334;13.528;2023-07-29T01:51:00;10.6;7.6;
78678;PMS5003;67994;59.334;13.528;2023-07-29T01:52:00;10.6;7.6;
78678;PMS5003;67994;59.334;13.528;2023-07-29T01:53:00;9.7;9.7;
78678;PMS5003;67994;59.334;13.528;2023-07-29T01:54:00;9.7;9.7;
78678;PMS5003;67994;59.334;13.528;2023-07-29T01:55:00;9.7;9.7;
78678;PMS5003;67994;59.334;13.528;2023-07-29T01:56:01;9.7;9.7;
78678;PMS5003;67994;59.334;13.528;2023-07-29T01:57:00;9.7;9.7;
78678;PMS5003;67994;59.334;13.528;2023-07-29T01:58:00;12.7;11.3;
78678;PMS5003;67994;59.334;13.528;2023-07-29T01:59:00;12.7;11.3;
78678;PMS5003;67994;59.334;13.528;2023-07-29T02:00:00;12.7;11.3;
78678;PMS5003;67994;59.334;13.528;2023-07-29T02:01:00;12.7;11.3;
78678;PMS5003;67994;59.334;13.528;2023-07-29T02:02:00;12.7;11.3;
78678;PMS5003;67994;59.334;13.528;2023-07-29T02:03:00;9.7;9.0;
78678;PMS5003;67994;59.334;13.528;2023-07-29T02:04:00;9.7;9.0;
78678;PMS5003;67994;59.334;13.528;2023-07-29T02:05:00;9.7;9.0;
78678;PMS5003;67994;59.334;13.528;2023-07-29T02:06:00;9.7;9.0;
78678;PMS5003;67994;59.334;13.528;2023-07-29T02:07:00;9.7;9.0;
78678;PMS5003;67994;59.334;13.528;2023-07-29T02:08:00;6.9;6.9;
78678;PMS5003;67994;59.334;13.528;2023-07-29T02:09:00;6.9;6.9;
78678;PMS5003;67994;59.334;13.528;2023-07-29T02:10:00;6.9;6.9;
78678;PMS5003;67994;59.334;13.528;2023-07-29T02:11:00;6.9;6.9;
78678;PMS5003;67994;59.334;13.528;2023-07-29T02:12:00;6.9;6.9;
78678;PMS5003;67994;59.334;13.528;2023-07-29T02:13:00;7.1;7.1;
78678;PMS5003;67994;59.334;13.528;2023-07-29T02:14:00;7.1;7.1;
78678;PMS5003;67994;59.334;13.528;2023-07-29T02:15:00;7.1;7.1;
78678;PMS5003;67994;59.334;13.528;2023-07-29T02:16:00;7.1;7.1;
78678;PMS5003;67994;59.334;13.528;2023-07-29T02:17:00;7.1;7.1;
78678;PMS5003;67994;59.334;13.528;2023-07-29T02:18:00;8.1;7.1;
78678;PMS5003;67994;59.334;13.528;2023-07-29T02:19:00;8.1;7.1;
78678;PMS5003;67994;59.334;13.528;2023-07-29T02:20:00;8.1;7.1;
78678;PMS5003;67994;59.334;13.528;2023-07-29T02:21:00;8.1;7.1;
78678;PMS5003;67994;59.334;13.528;2023-07-29T02:22:00;8.1;7.1;
78678;PMS5003;67994;59.334;13.528;2023-07-29T02:23:00;7.3;7.0;
78678;PMS5003;67994;59.334;13.528;2023-07-29T02:24:00;7.3;7.0;
78678;PMS5003;67994;59.334;13.528;2023-07-29T02:25:00;7.3;7.0;
78678;PMS5003;67994;59.334;13.528;2023-07-29T02:26:00;7.3;7.0;
78678;PMS5003;67994;59.334;13.528;2023-07-29T02:27:00;7.3;7.0;
78678;PMS5003;67994;59.334;13.528;2023-07-29T02:28:00;7.7;7.1;
78678;PMS5003;67994;59.334;13.528;2023-07-29T02:29:00;7.7;7.1;
78678;PMS5003;67994;59.334;13.528;2023-07-29T02:30:00;7.7;7.1;
78678;PMS5003;67994;59.334;13.528;2023-07-29T02:32:00;7.7;7.1;
78678;PMS5003;67994;59.334;13.528;2023-07-29T02:33:00;8.7;4.7;
78678;PMS5003;67994;59.334;13.528;2023-07-29T02:34:00;8.7;4.7;
78678;PMS5003;67994;59.334;13.528;2023-07-29T02:35:00;8.7;4.7;
78678;PMS5003;67994;59.334;13.528;2023-07-29T02:36:00;8.7;4.7;
78678;PMS5003;67994;59.334;13.528;2023-07-29T02:37:00;8.7;4.7;
78678;PMS5003;67994;59.334;13.528;2023-07-29T02:38:00;7.0;5.1;
78678;PMS5003;67994;59.334;13.528;2023-07-29T02:39:00;7.0;5.1;
78678;PMS5003;67994;59.334;13.528;2023-07-29T02:40:00;7.0;5.1;
78678;PMS5003;67994;59.334;13.528;2023-07-29T02:41:00;7.0;5.1;
78678;PMS5003;67994;59.334;13.528;2023-07-29T02:42:00;7.0;5.1;
78678;PMS5003;67994;59.334;13.528;2023-07-29T02:43:00;7.0;7.0;
78678;PMS5003;67994;59.334;13.528;2023-07-29T02:44:01;7.0;7.0;
78678;PMS5003;67994;59.334;13.528;2023-07-29T02:45:00;7.0;7.0;
78678;PMS5003;67994;59.334;13.528;2023-07-29T02:46:00;7.0;7.0;
78678;PMS5003;67994;59.334;13.528;2023-07-29T02:47:00;7.0;7.0;
78678;PMS5003;67994;59.334;13.528;2023-07-29T02:48:00;7.2;7.2;
78678;PMS5003;67994;59.334;13.528;2023-07-29T02:49:01;7.2;7.2;
78678;PMS5003;67994;59.334;13.528;2023-07-29T02:50:00;7.2;7.2;
78678;PMS5003;67994;59.334;13.528;2023-07-29T02:51:00;7.2;7.2;
78678;PMS5003;67994;59.334;13.528;2023-07-29T02:52:00;7.2;7.2;
78678;PMS5003;67994;59.334;13.528;2023-07-29T02:53:00;13.7;12.1;
78678;PMS5003;67994;59.334;13.528;2023-07-29T02:54:00;13.7;12.1;
78678;PMS5003;67994;59.334;13.528;2023-07-29T02:55:00;13.7;12.1;
78678;PMS5003;67994;59.334;13.528;2023-07-29T02:56:00;13.7;12.1;
78678;PMS5003;67994;59.334;13.528;2023-07-29T02:57:00;13.7;12.1;
78678;PMS5003;67994;59.334;13.528;2023-07-29T02:58:00;11.0;8.3;
78678;PMS5003;67994;59.334;13.528;2023-07-29T02:59:00;11.0;8.3;
78678;PMS5003;67994;59.334;13.528;2023-07-29T03:00:00;11.0;8.3;
78678;PMS5003;67994;59.334;13.528;2023-07-29T03:01:00;11.0;8.3;
78678;PMS5003;67994;59.334;13.528;2023-07-29T03:02:00;11.0;8.3;
78678;PMS5003;67994;59.334;13.528;2023-07-29T03:03:00;7.4;5.3;
78678;PMS5003;67994;59.334;13.528;2023-07-29T03:04:00;7.4;5.3;
78678;PMS5003;67994;59.334;13.528;2023-07-29T03:05:00;7.4;5.3;
78678;PMS5003;67994;59.334;13.528;2023-07-29T03:06:01;7.4;5.3;
78678;PMS5003;67994;59.334;13.528;2023-07-29T03:07:00;7.4;5.3;
78678;PMS5003;67994;59.334;13.528;2023-07-29T03:08:00;6.1;5.5;
78678;PMS5003;67994;59.334;13.528;2023-07-29T03:09:00;6.1;5.5;
78678;PMS5003;67994;59.334;13.528;2023-07-29T03:10:00;6.1;5.5;
78678;PMS5003;67994;59.334;13.528;2023-07-29T03:11:04;6.1;5.5;
78678;PMS5003;67994;59.334;13.528;2023-07-29T03:12:00;6.1;5.5;
78678;PMS5003;67994;59.334;13.528;2023-07-29T03:13:00;6.5;6.1;
78678;PMS5003;67994;59.334;13.528;2023-07-29T03:14:00;6.5;6.1;
78678;PMS5003;67994;59.334;13.528;2023-07-29T03:15:00;6.5;6.1;
78678;PMS5003;67994;59.334;13.528;2023-07-29T03:16:04;6.5;6.1;
78678;PMS5003;67994;59.334;13.528;2023-07-29T03:17:01;6.5;6.1;
78678;PMS5003;67994;59.334;13.528;2023-07-29T03:18:00;5.6;4.0;
78678;PMS5003;67994;59.334;13.528;2023-07-29T03:19:00;5.6;4.0;
78678;PMS5003;67994;59.334;13.528;2023-07-29T03:20:00;5.6;4.0;
78678;PMS5003;67994;59.334;13.528;2023-07-29T03:21:00;5.6;4.0;
78678;PMS5003;67994;59.334;13.528;2023-07-29T03:22:00;5.6;4.0;
78678;PMS5003;67994;59.334;13.528;2023-07-29T03:23:00;9.1;6.4;
78678;PMS5003;67994;59.334;13.528;2023-07-29T03:24:00;9.1;6.4;
78678;PMS5003;67994;59.334;13.528;2023-07-29T03:25:00;9.1;6.4;
78678;PMS5003;67994;59.334;13.528;2023-07-29T03:26:00;9.1;6.4;
78678;PMS5003;67994;59.334;13.528;2023-07-29T03:27:00;9.1;6.4;
78678;PMS5003;67994;59.334;13.528;2023-07-29T03:28:00;6.7;6.0;
78678;PMS5003;67994;59.334;13.528;2023-07-29T03:29:00;6.7;6.0;
78678;PMS5003;67994;59.334;13.528;2023-07-29T03:30:00;6.7;6.0;
78678;PMS5003;67994;59.334;13.528;2023-07-29T03:31:00;6.7;6.0;
78678;PMS5003;67994;59.334;13.528;2023-07-29T03:32:00;6.7;6.0;
78678;PMS5003;67994;59.334;13.528;2023-07-29T03:33:00;9.2;5.0;
78678;PMS5003;67994;59.334;13.528;2023-07-29T03:34:00;9.2;5.0;
78678;PMS5003;67994;59.334;13.528;2023-07-29T03:35:00;9.2;5.0;
78678;PMS5003;67994;59.334;13.528;2023-07-29T03:36:00;9.2;5.0;
78678;PMS5003;67994;59.334;13.528;2023-07-29T03:37:00;9.2;5.0;
78678;PMS5003;67994;59.334;13.528;2023-07-29T03:38:00;9.4;5.7;
78678;PMS5003;67994;59.334;13.528;2023-07-29T03:39:00;9.4;5.7;
78678;PMS5003;67994;59.334;13.528;2023-07-29T03:40:00;9.4;5.7;
78678;PMS5003;67994;59.334;13.528;2023-07-29T03:41:00;9.4;5.7;
78678;PMS5003;67994;59.334;13.528;2023-07-29T03:42:00;9.4;5.7;
78678;PMS5003;67994;59.334;13.528;2023-07-29T03:43:00;8.3;8.0;
78678;PMS5003;67994;59.334;13.528;2023-07-29T03:44:00;8.3;8.0;
78678;PMS5003;67994;59.334;13.528;2023-07-29T03:45:00;8.3;8.0;
78678;PMS5003;67994;59.334;13.528;2023-07-29T03:46:00;8.3;8.0;
78678;PMS5003;67994;59.334;13.528;2023-07-29T03:47:00;8.3;8.0;
78678;PMS5003;67994;59.334;13.528;2023-07-29T03:48:00;8.1;8.1;
78678;PMS5003;67994;59.334;13.528;2023-07-29T03:49:00;8.1;8.1;
78678;PMS5003;67994;59.334;13.528;2023-07-29T03:50:00;8.1;8.1;
78678;PMS5003;67994;59.334;13.528;2023-07-29T03:51:00;8.1;8.1;
78678;PMS5003;67994;59.334;13.528;2023-07-29T03:52:00;8.1;8.1;
78678;PMS5003;67994;59.334;13.528;2023-07-29T03:53:00;8.8;6.0;
78678;PMS5003;67994;59.334;13.528;2023-07-29T03:54:00;8.8;6.0;
78678;PMS5003;67994;59.334;13.528;2023-07-29T03:55:00;8.8;6.0;
78678;PMS5003;67994;59.334;13.528;2023-07-29T03:56:00;8.8;6.0;
78678;PMS5003;67994;59.334;13.528;2023-07-29T03:57:00;8.8;6.0;
78678;PMS5003;67994;59.334;13.528;2023-07-29T03:58:00;7.6;5.0;
78678;PMS5003;67994;59.334;13.528;2023-07-29T03:59:01;7.6;5.0;
78678;PMS5003;67994;59.334;13.528;2023-07-29T04:00:00;7.6;5.0;
78678;PMS5003;67994;59.334;13.528;2023-07-29T04:01:00;7.6;5.0;
78678;PMS5003;67994;59.334;13.528;2023-07-29T04:02:00;7.6;5.0;
78678;PMS5003;67994;59.334;13.528;2023-07-29T04:03:00;6.0;5.0;
78678;PMS5003;67994;59.334;13.528;2023-07-29T04:04:00;6.0;5.0;
78678;PMS5003;67994;59.334;13.528;2023-07-29T04:05:00;6.0;5.0;
78678;PMS5003;67994;59.334;13.528;2023-07-29T04:06:00;6.0;5.0;
78678;PMS5003;67994;59.334;13.528;2023-07-29T04:07:00;6.0;5.0;
78678;PMS5003;67994;59.334;13.528;2023-07-29T04:08:00;6.9;6.9;
78678;PMS5003;67994;59.334;13.528;2023-07-29T04:09:00;6.9;6.9;
78678;PMS5003;67994;59.334;13.528;2023-07-29T04:10:00;6.9;6.9;
78678;PMS5003;67994;59.334;13.528;2023-07-29T04:11:00;6.9;6.9;
78678;PMS5003;67994;59.334;13.528;2023-07-29T04:12:00;6.9;6.9;
78678;PMS5003;67994;59.334;13.528;2023-07-29T04:13:00;8.0;7.1;
78678;PMS5003;67994;59.334;13.528;2023-07-29T04:14:00;8.0;7.1;
78678;PMS5003;67994;59.334;13.528;2023-07-29T04:15:00;8.0;7.1;
78678;PMS5003;67994;59.334;13.528;2023-07-29T04:16:00;8.0;7.1;
78678;PMS5003;67994;59.334;13.528;2023-07-29T04:17:00;8.0;7.1;
78678;PMS5003;67994;59.334;13.528;2023-07-29T04:18:00;8.8;5.4;
78678;PMS5003;67994;59.334;13.528;2023-07-29T04:19:00;8.8;5.4;
78678;PMS5003;67994;59.334;13.528;2023-07-29T04:20:00;8.8;5.4;
78678;PMS5003;67994;59.334;13.528;2023-07-29T04:21:00;8.8;5.4;
78678;PMS5003;67994;59.334;13.528;2023-07-29T04:22:00;8.8;5.4;
78678;PMS5003;67994;59.334;13.528;2023-07-29T04:23:00;8.7;6.0;
78678;PMS5003;67994;59.334;13.528;2023-07-29T04:24:00;8.7;6.0;
78678;PMS5003;67994;59.334;13.528;2023-07-29T04:25:00;8.7;6.0;
78678;PMS5003;67994;59.334;13.528;2023-07-29T04:26:00;8.7;6.0;
78678;PMS5003;67994;59.334;13.528;2023-07-29T04:27:00;8.7;6.0;
78678;PMS5003;67994;59.334;13.528;2023-07-29T04:28:00;4.1;3.0;
78678;PMS5003;67994;59.334;13.528;2023-07-29T04:29:00;4.1;3.0;
78678;PMS5003;67994;59.334;13.528;2023-07-29T04:30:00;4.1;3.0;
78678;PMS5003;67994;59.334;13.528;2023-07-29T04:31:00;4.1;3.0;
78678;PMS5003;67994;59.334;13.528;2023-07-29T04:32:00;4.1;3.0;
78678;PMS5003;67994;59.334;13.528;2023-07-29T04:33:00;6.2;6.2;
78678;PMS5003;67994;59.334;13.528;2023-07-29T04:34:00;6.2;6.2;
78678;PMS5003;67994;59.334;13.528;2023-07-29T04:35:00;6.2;6.2;
78678;PMS5003;67994;59.334;13.528;2023-07-29T04:36:00;6.2;6.2;
78678;PMS5003;67994;59.334;13.528;2023-07-29T04:37:00;6.2;6.2;
78678;PMS5003;67994;59.334;13.528;2023-07-29T04:38:00;7.0;6.0;
78678;PMS5003;67994;59.334;13.528;2023-07-29T04:39:00;7.0;6.0;
78678;PMS5003;67994;59.334;13.528;2023-07-29T04:40:00;7.0;6.0;
78678;PMS5003;67994;59.334;13.528;2023-07-29T04:41:00;7.0;6.0;
78678;PMS5003;67994;59.334;13.528;2023-07-29T04:42:00;7.0;6.0;
78678;PMS5003;67994;59.334;13.528;2023-07-29T04:43:00;4.0;4.0;
78678;PMS5003;67994;59.334;13.528;2023-07-29T04:44:00;4.0;4.0;
78678;PMS5003;67994;59.334;13.528;2023-07-29T04:45:00;4.0;4.0;
78678;PMS5003;67994;59.334;13.528;2023-07-29T04:46:00;4.0;4.0;
78678;PMS5003;67994;59.334;13.528;2023-07-29T04:47:00;4.0;4.0;
78678;PMS5003;67994;59.334;13.528;2023-07-29T04:48:00;3.9;3.9;
78678;PMS5003;67994;59.334;13.528;2023-07-29T04:49:00;3.9;3.9;
78678;PMS5003;67994;59.334;13.528;2023-07-29T04:50:00;3.9;3.9;
78678;PMS5003;67994;59.334;13.528;2023-07-29T04:51:00;3.9;3.9;
78678;PMS5003;67994;59.334;13.528;2023-07-29T04:52:00;3.9;3.9;
78678;PMS5003;67994;59.334;13.528;2023-07-29T04:53:00;5.7;5.0;
78678;PMS5003;67994;59.334;13.528;2023-07-29T04:54:00;5.7;5.0;
78678;PMS5003;67994;59.334;13.528;2023-07-29T04:55:00;5.7;5.0;
78678;PMS5003;67994;59.334;13.528;2023-07-29T04:56:00;5.7;5.0;
78678;PMS5003;67994;59.334;13.528;2023-07-29T04:57:00;5.7;5.0;
78678;PMS5003;67994;59.334;13.528;2023-07-29T04:58:00;6.1;4.4;
78678;PMS5003;67994;59.334;13.528;2023-07-29T04:59:00;6.1;4.4;
78678;PMS5003;67994;59.334;13.528;2023-07-29T05:00:00;6.1;4.4;
78678;PMS5003;67994;59.334;13.528;2023-07-29T05:01:00;6.1;4.4;
78678;PMS5003;67994;59.334;13.528;2023-07-29T05:02:00;6.1;4.4;
78678;PMS5003;67994;59.334;13.528;2023-07-29T05:03:00;4.1;4.1;
78678;PMS5003;67994;59.334;13.528;2023-07-29T05:04:00;4.1;4.1;
78678;PMS5003;67994;59.334;13.528;2023-07-29T05:05:00;4.1;4.1;
78678;PMS5003;67994;59.334;13.528;2023-07-29T05:06:00;4.1;4.1;
78678;PMS5003;67994;59.334;13.528;2023-07-29T05:07:00;4.1;4.1;
78678;PMS5003;67994;59.334;13.528;2023-07-29T05:08:00;3.3;3.3;
78678;PMS5003;67994;59.334;13.528;2023-07-29T05:10:00;3.3;3.3;
78678;PMS5003;67994;59.334;13.528;2023-07-29T05:11:00;3.3;3.3;
78678;PMS5003;67994;59.334;13.528;2023-07-29T05:12:00;3.3;3.3;
78678;PMS5003;67994;59.334;13.528;2023-07-29T05:13:00;8.6;7.3;
78678;PMS5003;67994;59.334;13.528;2023-07-29T05:14:00;8.6;7.3;
78678;PMS5003;67994;59.334;13.528;2023-07-29T05:15:00;8.6;7.3;
78678;PMS5003;67994;59.334;13.528;2023-07-29T05:16:00;8.6;7.3;
78678;PMS5003;67994;59.334;13.528;2023-07-29T05:17:00;8.6;7.3;
78678;PMS5003;67994;59.334;13.528;2023-07-29T05:18:00;5.0;5.0;
78678;PMS5003;67994;59.334;13.528;2023-07-29T05:19:00;5.0;5.0;
78678;PMS5003;67994;59.334;13.528;2023-07-29T05:20:00;5.0;5.0;
78678;PMS5003;67994;59.334;13.528;2023-07-29T05:21:00;5.0;5.0;
78678;PMS5003;67994;59.334;13.528;2023-07-29T05:22:00;5.0;5.0;
78678;PMS5003;67994;59.334;13.528;2023-07-29T05:23:00;4.3;4.0;
78678;PMS5003;67994;59.334;13.528;2023-07-29T05:24:00;4.3;4.0;
78678;PMS5003;67994;59.334;13.528;2023-07-29T05:25:00;4.3;4.0;
78678;PMS5003;67994;59.334;13.528;2023-07-29T05:26:00;4.3;4.0;
78678;PMS5003;67994;59.334;13.528;2023-07-29T05:27:00;4.3;4.0;
78678;PMS5003;67994;59.334;13.528;2023-07-29T05:28:00;4.0;4.0;
78678;PMS5003;67994;59.334;13.528;2023-07-29T05:29:00;4.0;4.0;
78678;PMS5003;67994;59.334;13.528;2023-07-29T05:30:00;4.0;4.0;
78678;PMS5003;67994;59.334;13.528;2023-07-29T05:31:00;4.0;4.0;
78678;PMS5003;67994;59.334;13.528;2023-07-29T05:32:00;4.0;4.0;
78678;PMS5003;67994;59.334;13.528;2023-07-29T05:33:00;6.9;5.0;
78678;PMS5003;67994;59.334;13.528;2023-07-29T05:34:00;6.9;5.0;
78678;PMS5003;67994;59.334;13.528;2023-07-29T05:35:00;6.9;5.0;
78678;PMS5003;67994;59.334;13.528;2023-07-29T05:36:00;6.9;5.0;
78678;PMS5003;67994;59.334;13.528;2023-07-29T05:37:00;6.9;5.0;
78678;PMS5003;67994;59.334;13.528;2023-07-29T05:38:00;5.3;5.0;
78678;PMS5003;67994;59.334;13.528;2023-07-29T05:39:00;5.3;5.0;
78678;PMS5003;67994;59.334;13.528;2023-07-29T05:40:00;5.3;5.0;
78678;PMS5003;67994;59.334;13.528;2023-07-29T05:41:00;5.3;5.0;
78678;PMS5003;67994;59.334;13.528;2023-07-29T05:42:00;5.3;5.0;
78678;PMS5003;67994;59.334;13.528;2023-07-29T05:43:00;7.0;7.0;
78678;PMS5003;67994;59.334;13.528;2023-07-29T05:44:00;7.0;7.0;
78678;PMS5003;67994;59.334;13.528;2023-07-29T05:45:00;7.0;7.0;
78678;PMS5003;67994;59.334;13.528;2023-07-29T05:46:00;7.0;7.0;
78678;PMS5003;67994;59.334;13.528;2023-07-29T05:47:00;7.0;7.0;
78678;PMS5003;67994;59.334;13.528;2023-07-29T05:48:00;5.1;5.1;
78678;PMS5003;67994;59.334;13.528;2023-07-29T05:49:00;5.1;5.1;
78678;PMS5003;67994;59.334;13.528;2023-07-29T05:50:00;5.1;5.1;
78678;PMS5003;67994;59.334;13.528;2023-07-29T05:51:00;5.1;5.1;
78678;PMS5003;67994;59.334;13.528;2023-07-29T05:52:00;5.1;5.1;
78678;PMS5003;67994;59.334;13.528;2023-07-29T05:53:00;5.4;5.4;
78678;PMS5003;67994;59.334;13.528;2023-07-29T05:54:00;5.4;5.4;
78678;PMS5003;67994;59.334;13.528;2023-07-29T05:55:00;5.4;5.4;
78678;PMS5003;67994;59.334;13.528;2023-07-29T05:56:00;5.4;5.4;
78678;PMS5003;67994;59.334;13.528;2023-07-29T05:57:00;5.4;5.4;
78678;PMS5003;67994;59.334;13.528;2023-07-29T05:58:00;14.7;13.0;
78678;PMS5003;67994;59.334;13.528;2023-07-29T05:59:00;14.7;13.0;
78678;PMS5003;67994;59.334;13.528;2023-07-29T06:00:00;14.7;13.0;
78678;PMS5003;67994;59.334;13.528;2023-07-29T06:01:00;14.7;13.0;
78678;PMS5003;67994;59.334;13.528;2023-07-29T06:02:00;14.7;13.0;
78678;PMS5003;67994;59.334;13.528;2023-07-29T06:03:00;12.7;11.8;
78678;PMS5003;67994;59.334;13.528;2023-07-29T06:04:00;12.7;11.8;
78678;PMS5003;67994;59.334;13.528;2023-07-29T06:05:00;12.7;11.8;
78678;PMS5003;67994;59.334;13.528;2023-07-29T06:06:00;12.7;11.8;
78678;PMS5003;67994;59.334;13.528;2023-07-29T06:07:00;12.7;11.8;
78678;PMS5003;67994;59.334;13.528;2023-07-29T06:08:00;10.1;9.7;
78678;PMS5003;67994;59.334;13.528;2023-07-29T06:09:00;10.1;9.7;
78678;PMS5003;67994;59.334;13.528;2023-07-29T06:10:00;10.1;9.7;
78678;PMS5003;67994;59.334;13.528;2023-07-29T06:11:00;10.1;9.7;
78678;PMS5003;67994;59.334;13.528;2023-07-29T06:12:00;10.1;9.7;
78678;PMS5003;67994;59.334;13.528;2023-07-29T06:13:00;11.0;7.1;
78678;PMS5003;67994;59.334;13.528;2023-07-29T06:14:00;11.0;7.1;
78678;PMS5003;67994;59.334;13.528;2023-07-29T06:15:00;11.0;7.1;
78678;PMS5003;67994;59.334;13.528;2023-07-29T06:16:00;11.0;7.1;
78678;PMS5003;67994;59.334;13.528;2023-07-29T06:17:00;11.0;7.1;
78678;PMS5003;67994;59.334;13.528;2023-07-29T06:18:00;8.0;8.0;
78678;PMS5003;67994;59.334;13.528;2023-07-29T06:19:00;8.0;8.0;